Time,TemperatureF,DewpointF,PressureIn,WindDirection,WindDirectionDegrees,WindSpeedMPH,WindSpeedGustMPH,Humidity,HourlyPrecipIn,Conditions,Clouds,dailyrainin,SoftwareType,DateUTC
2013-04-15 00:11:00,51.4,37.0,30.14,NW,316,1.0,3.0,59,0.00,,,0.00,weatherlink.com 1.10,2013-04-15 04:11:00,
2013-04-15 00:56:00,50.1,38.0,30.15,NW,318,1.0,1.0,64,0.00,,,0.00,weatherlink.com 1.10,2013-04-15 04:56:00,
2013-04-15 01:41:00,50.8,38.0,30.17,SSE,158,0.0,0.0,61,0.00,,,0.00,weatherlink.com 1.10,2013-04-15 05:41:00,
2013-04-15 01:56:00,49.8,38.0,30.18,SSE,158,0.0,0.0,63,0.00,,,0.00,weatherlink.com 1.10,2013-04-15 05:56:00,
2013-04-15 02:11:00,49.9,38.0,30.18,NNE,15,1.0,2.0,63,0.00,,,0.00,weatherlink.com 1.10,2013-04-15 06:11:00,
2013-04-15 02:26:00,51.1,38.0,30.18,East,89,2.0,9.0,62,0.00,,,0.00,weatherlink.com 1.10,2013-04-15 06:26:00,
2013-04-15 02:41:00,51.3,39.0,30.19,ENE,63,6.0,10.0,62,0.00,,,0.00,weatherlink.com 1.10,2013-04-15 06:41:00,
2013-04-15 02:56:00,50.7,39.0,30.19,East,85,5.0,11.0,64,0.00,,,0.00,weatherlink.com 1.10,2013-04-15 06:56:00,
2013-04-15 03:41:00,49.9,39.0,30.20,ENE,77,8.0,10.0,66,0.00,,,0.00,weatherlink.com 1.10,2013-04-15 07:41:00,
2013-04-15 03:56:00,49.5,39.0,30.20,ENE,63,5.0,6.0,67,0.00,,,0.00,weatherlink.com 1.10,2013-04-15 07:56:00,
2013-04-15 04:11:00,49.3,39.0,30.20,East,100,2.0,7.0,68,0.00,,,0.00,weatherlink.com 1.10,2013-04-15 08:11:00,
2013-04-15 04:41:00,49.1,38.0,30.21,East,100,2.0,7.0,65,0.00,,,0.00,weatherlink.com 1.10,2013-04-15 08:41:00,
2013-04-15 04:57:00,49.1,36.0,30.22,ESE,112,3.0,8.0,62,0.00,,,0.00,weatherlink.com 1.10,2013-04-15 08:57:00,
2013-04-15 05:11:00,49.2,36.0,30.23,ESE,122,2.0,7.0,61,0.00,,,0.00,weatherlink.com 1.10,2013-04-15 09:11:00,
2013-04-15 05:26:00,49.2,35.0,30.23,SE,134,6.0,11.0,58,0.00,,,0.00,weatherlink.com 1.10,2013-04-15 09:26:00,
2013-04-15 05:42:00,49.1,35.0,30.23,ESE,117,4.0,9.0,58,0.00,,,0.00,weatherlink.com 1.10,2013-04-15 09:42:00,
2013-04-15 05:57:00,48.8,35.0,30.23,ESE,105,5.0,8.0,59,0.00,,,0.00,weatherlink.com 1.10,2013-04-15 09:57:00,
2013-04-15 06:12:00,48.7,35.0,30.23,ESE,108,5.0,8.0,60,0.00,,,0.00,weatherlink.com 1.10,2013-04-15 10:12:00,
2013-04-15 06:27:00,48.7,35.0,30.24,East,93,3.0,9.0,60,0.00,,,0.00,weatherlink.com 1.10,2013-04-15 10:27:00,
2013-04-15 06:42:00,48.6,36.0,30.25,SE,134,2.0,7.0,61,0.00,,,0.00,weatherlink.com 1.10,2013-04-15 10:42:00,
2013-04-15 06:57:00,48.7,35.0,30.25,ESE,115,7.0,8.0,60,0.00,,,0.00,weatherlink.com 1.10,2013-04-15 10:57:00,
2013-04-15 07:12:00,48.7,36.0,30.26,ESE,111,2.0,6.0,61,0.00,,,0.00,weatherlink.com 1.10,2013-04-15 11:12:00,
2013-04-15 07:27:00,48.8,36.0,30.27,ESE,114,3.0,7.0,61,0.00,,,0.00,weatherlink.com 1.10,2013-04-15 11:27:00,
2013-04-15 07:42:00,48.9,36.0,30.28,ESE,111,3.0,6.0,62,0.00,,,0.00,weatherlink.com 1.10,2013-04-15 11:42:00,
2013-04-15 07:57:00,48.8,37.0,30.29,ESE,109,2.0,4.0,64,0.00,,,0.00,weatherlink.com 1.10,2013-04-15 11:57:00,
2013-04-15 08:12:00,48.9,37.0,30.29,SE,124,4.0,10.0,64,0.00,,,0.00,weatherlink.com 1.10,2013-04-15 12:12:00,
2013-04-15 08:27:00,48.6,38.0,30.29,East,99,1.0,9.0,66,0.00,,,0.00,weatherlink.com 1.10,2013-04-15 12:27:00,
2013-04-15 08:42:00,48.6,38.0,30.30,East,96,1.0,5.0,67,0.00,,,0.00,weatherlink.com 1.10,2013-04-15 12:42:00,
2013-04-15 08:57:00,48.1,39.0,30.29,East,90,4.0,7.0,72,0.00,,,0.00,weatherlink.com 1.10,2013-04-15 12:57:00,
2013-04-15 09:12:00,47.9,40.0,30.29,ENE,57,4.0,8.0,73,0.00,,,0.00,weatherlink.com 1.10,2013-04-15 13:12:00,
2013-04-15 09:27:00,48.4,40.0,30.28,ENE,75,3.0,7.0,73,0.00,,,0.00,weatherlink.com 1.10,2013-04-15 13:27:00,
2013-04-15 09:42:00,48.9,40.0,30.28,ESE,114,3.0,7.0,71,0.00,,,0.00,weatherlink.com 1.10,2013-04-15 13:42:00,
2013-04-15 09:57:00,49.6,41.0,30.28,NE,56,5.0,9.0,72,0.00,,,0.00,weatherlink.com 1.10,2013-04-15 13:57:00,
2013-04-15 10:27:00,50.6,42.0,30.28,ENE,65,6.0,8.0,72,0.00,,,0.00,weatherlink.com 1.10,2013-04-15 14:27:00,
2013-04-15 10:42:00,51.3,42.0,30.28,NNE,17,4.0,9.0,71,0.00,,,0.00,weatherlink.com 1.10,2013-04-15 14:42:00,
2013-04-15 10:57:00,51.0,42.0,30.28,NNE,29,2.0,12.0,72,0.00,,,0.00,weatherlink.com 1.10,2013-04-15 14:57:00,
2013-04-15 11:12:00,51.6,43.0,30.28,ENE,67,1.0,7.0,73,0.00,,,0.00,weatherlink.com 1.10,2013-04-15 15:12:00,
2013-04-15 11:27:00,52.1,43.0,30.28,ESE,115,3.0,8.0,70,0.00,,,0.00,weatherlink.com 1.10,2013-04-15 15:27:00,
2013-04-15 11:42:00,53.8,45.0,30.28,ENE,70,3.0,7.0,71,0.00,,,0.00,weatherlink.com 1.10,2013-04-15 15:42:00,
2013-04-15 11:57:00,55.4,45.0,30.28,SE,124,4.0,12.0,67,0.00,,,0.00,weatherlink.com 1.10,2013-04-15 15:57:00,
2013-04-15 12:12:00,55.4,44.0,30.28,ESE,103,8.0,12.0,66,0.00,,,0.00,weatherlink.com 1.10,2013-04-15 16:12:00,
2013-04-15 12:27:00,56.7,45.0,30.28,East,79,7.0,10.0,66,0.00,,,0.00,weatherlink.com 1.10,2013-04-15 16:27:00,
2013-04-15 12:42:00,57.6,45.0,30.27,South,177,4.0,12.0,64,0.00,,,0.00,weatherlink.com 1.10,2013-04-15 16:42:00,
2013-04-15 12:57:00,56.8,45.0,30.26,East,87,6.0,13.0,65,0.00,,,0.00,weatherlink.com 1.10,2013-04-15 16:57:00,
2013-04-15 13:13:00,57.4,45.0,30.26,ESE,114,8.0,10.0,64,0.00,,,0.00,weatherlink.com 1.10,2013-04-15 17:13:00,
2013-04-15 13:28:00,59.3,46.0,30.25,SE,131,9.0,11.0,62,0.00,,,0.00,weatherlink.com 1.10,2013-04-15 17:28:00,
2013-04-15 13:43:00,59.2,46.0,30.26,SSE,165,4.0,10.0,62,0.00,,,0.00,weatherlink.com 1.10,2013-04-15 17:43:00,
2013-04-15 13:58:00,60.5,46.0,30.25,SSE,163,2.0,10.0,60,0.00,,,0.00,weatherlink.com 1.10,2013-04-15 17:58:00,
2013-04-15 14:13:00,60.2,47.0,30.25,ESE,115,10.0,13.0,61,0.00,,,0.00,weatherlink.com 1.10,2013-04-15 18:13:00,
2013-04-15 14:28:00,61.1,46.0,30.25,East,87,5.0,11.0,59,0.00,,,0.00,weatherlink.com 1.10,2013-04-15 18:28:00,
2013-04-15 14:43:00,61.7,47.0,30.25,SE,134,5.0,8.0,58,0.00,,,0.00,weatherlink.com 1.10,2013-04-15 18:43:00,
2013-04-15 14:58:00,62.1,46.0,30.25,SSE,156,7.0,11.0,57,0.00,,,0.00,weatherlink.com 1.10,2013-04-15 18:58:00,
2013-04-15 15:13:00,62.4,46.0,30.25,SE,135,6.0,12.0,55,0.00,,,0.00,weatherlink.com 1.10,2013-04-15 19:13:00,
2013-04-15 15:28:00,62.3,47.0,30.25,ESE,120,6.0,10.0,57,0.00,,,0.00,weatherlink.com 1.10,2013-04-15 19:28:00,
2013-04-15 15:43:00,62.1,47.0,30.24,SE,135,7.0,12.0,58,0.00,,,0.00,weatherlink.com 1.10,2013-04-15 19:43:00,
2013-04-15 15:58:00,61.4,47.0,30.24,South,176,6.0,15.0,60,0.00,,,0.00,weatherlink.com 1.10,2013-04-15 19:58:00,
2013-04-15 16:13:00,61.2,47.0,30.24,SSE,149,3.0,12.0,59,0.00,,,0.00,weatherlink.com 1.10,2013-04-15 20:13:00,
2013-04-15 16:28:00,60.5,46.0,30.25,SW,229,4.0,12.0,60,0.00,,,0.00,weatherlink.com 1.10,2013-04-15 20:28:00,
2013-04-15 16:43:00,59.9,47.0,30.24,SSE,159,5.0,13.0,62,0.00,,,0.00,weatherlink.com 1.10,2013-04-15 20:43:00,
2013-04-15 16:58:00,59.6,46.0,30.24,SE,146,4.0,13.0,62,0.00,,,0.00,weatherlink.com 1.10,2013-04-15 20:58:00,
2013-04-15 17:13:00,58.8,47.0,30.24,SE,124,7.0,9.0,66,0.00,,,0.00,weatherlink.com 1.10,2013-04-15 21:13:00,
2013-04-15 17:28:00,58.4,48.0,30.24,South,169,4.0,9.0,68,0.00,,,0.00,weatherlink.com 1.10,2013-04-15 21:28:00,
2013-04-15 17:43:00,57.9,48.0,30.25,SSE,153,7.0,9.0,70,0.00,,,0.00,weatherlink.com 1.10,2013-04-15 21:43:00,
2013-04-15 17:58:00,57.8,49.0,30.26,SE,141,4.0,10.0,72,0.00,,,0.00,weatherlink.com 1.10,2013-04-15 21:58:00,
2013-04-15 18:13:00,57.6,49.0,30.26,SSE,158,5.0,9.0,72,0.00,,,0.00,weatherlink.com 1.10,2013-04-15 22:13:00,
2013-04-15 18:28:00,57.3,48.0,30.26,ESE,121,6.0,13.0,72,0.00,,,0.00,weatherlink.com 1.10,2013-04-15 22:28:00,
2013-04-15 18:43:00,57.0,47.0,30.27,SSE,162,6.0,14.0,70,0.00,,,0.00,weatherlink.com 1.10,2013-04-15 22:43:00,
2013-04-15 18:58:00,55.7,46.0,30.27,SSE,155,5.0,17.0,69,0.00,,,0.00,weatherlink.com 1.10,2013-04-15 22:58:00,
2013-04-15 19:28:00,54.8,46.0,30.28,South,171,6.0,14.0,73,0.00,,,0.00,weatherlink.com 1.10,2013-04-15 23:28:00,
2013-04-15 19:43:00,54.6,46.0,30.28,SE,138,9.0,13.0,73,0.00,,,0.00,weatherlink.com 1.10,2013-04-15 23:43:00,
2013-04-15 19:58:00,54.4,46.0,30.28,SSE,147,5.0,14.0,74,0.00,,,0.00,weatherlink.com 1.10,2013-04-15 23:58:00,
2013-04-15 20:13:00,54.2,46.0,30.28,ESE,122,7.0,13.0,75,0.00,,,0.00,weatherlink.com 1.10,2013-04-16 00:13:00,
2013-04-15 20:28:00,53.8,46.0,30.28,SSE,152,6.0,12.0,76,0.00,,,0.00,weatherlink.com 1.10,2013-04-16 00:28:00,
2013-04-15 20:43:00,53.6,47.0,30.28,SSE,155,3.0,9.0,77,0.00,,,0.00,weatherlink.com 1.10,2013-04-16 00:43:00,
2013-04-15 20:58:00,53.4,46.0,30.29,SE,124,4.0,12.0,77,0.00,,,0.00,weatherlink.com 1.10,2013-04-16 00:58:00,
2013-04-15 21:13:00,53.5,46.0,30.30,SSE,160,3.0,14.0,77,0.00,,,0.00,weatherlink.com 1.10,2013-04-16 01:13:00,
2013-04-15 21:28:00,53.5,47.0,30.30,SE,141,3.0,8.0,78,0.00,,,0.00,weatherlink.com 1.10,2013-04-16 01:28:00,
2013-04-15 21:43:00,53.5,47.0,30.31,SE,144,9.0,9.0,78,0.00,,,0.00,weatherlink.com 1.10,2013-04-16 01:43:00,
2013-04-15 21:58:00,53.4,47.0,30.31,SE,139,2.0,9.0,78,0.00,,,0.00,weatherlink.com 1.10,2013-04-16 01:58:00,
2013-04-15 22:13:00,53.3,47.0,30.31,SE,133,2.0,10.0,79,0.00,,,0.00,weatherlink.com 1.10,2013-04-16 02:13:00,
2013-04-15 22:28:00,53.1,47.0,30.31,SE,130,3.0,8.0,79,0.00,,,0.00,weatherlink.com 1.10,2013-04-16 02:28:00,
2013-04-15 22:43:00,53.0,47.0,30.31,SE,126,4.0,9.0,80,0.00,,,0.00,weatherlink.com 1.10,2013-04-16 02:43:00,
2013-04-15 22:58:00,52.9,47.0,30.31,SE,134,7.0,9.0,80,0.00,,,0.00,weatherlink.com 1.10,2013-04-16 02:58:00,
2013-04-15 23:13:00,52.8,47.0,30.31,SE,132,3.0,6.0,80,0.00,,,0.00,weatherlink.com 1.10,2013-04-16 03:13:00,
2013-04-15 23:28:00,52.7,47.0,30.32,SE,129,3.0,6.0,80,0.00,,,0.00,weatherlink.com 1.10,2013-04-16 03:28:00,
2013-04-15 23:43:00,52.7,47.0,30.31,ESE,121,3.0,8.0,80,0.00,,,0.00,weatherlink.com 1.10,2013-04-16 03:43:00,
2013-04-15 23:58:00,52.6,47.0,30.32,SE,140,3.0,6.0,81,0.00,,,0.00,weatherlink.com 1.10,2013-04-16 03:58:00,